Accueil
METAR-TAF:

METAR-TAF

Aéroports :

Mönchengladbach, Allemagne

latitude: 51-13-49N, longitude: 006-30-16E, altitude: 38 m

Observation

Le bulletin a été fait il y a 15 minutes, à 12:20 UTC
Vent 7 kt de ouest, variant entre sud/sud-ouest et nord-ouest
Température 20°C
Humidité 60%
Pression 1008 hPa
Visibilité 10 km ou plus
Nuages épars à une hauteur de 3800 ft
Nuages épars à une hauteur de 6500 ft

METAR: EDLN 271220Z 27007KT 210V320 9999 SCT038 SCT065 20/12 Q1008

Heure: 14:35 (12:35 UTC)

Prévision

Le bulletin a été fait il y a 1 heure et 35 minutes, à 11:00 UTC
Prévision valable du 27 à 12 UTC au 27 à 21 UTC
Vent 9 kt de ouest
Visibilité 10 km ou plus
Nuages épars à une hauteur de 3000 ft
Evoluant progressivement
du 27 à 17 UTC au 27 à 20 UTC
Vent 4 kt de sud-ouest

TAF: EDLN 271100Z 2712/2721 27009KT 9999 SCT030 BECMG 2717/2720 23004KT

Observations et prévisions météorologiques de plus de 4000 aéroports (messages METAR et TAF).

Les stations disponibles sont représentées par des disques jaunes et rouges sur la carte.

Passer la souris dessus pour voir le nom de la station.

Cliquer dessus pour voir les observations et prévisions météorologiques.

Pour changer de carte: cliquez sur les boutons verts avec une croix noire pour zoomer, sur le bouton vert avec un tiret pour effectuer un zoom arrière, ou sur les flèches vertes pour les cartes adjacentes.


METAR-TAF: